createdAt,value
2022-09-02T00:01:19.752Z,101621.59
2022-09-02T00:03:50.443Z,101620.38
2022-09-02T00:06:22.843Z,101612.50
2022-09-02T00:08:53.136Z,101610.81
2022-09-02T00:11:27.474Z,101612.03
2022-09-02T00:13:59.755Z,101611.84
2022-09-02T00:16:30.233Z,101611.03
2022-09-02T00:19:00.502Z,101613.72
2022-09-02T00:21:33.666Z,101615.75
2022-09-02T00:24:03.643Z,101603.31
2022-09-02T00:26:33.547Z,101610.56
2022-09-02T00:29:03.633Z,101610.56
2022-09-02T00:31:34.257Z,101610.75
2022-09-02T00:34:04.298Z,101599.38
2022-09-02T00:36:37.049Z,101604.94
2022-09-02T00:39:08.937Z,101607.44
2022-09-02T00:41:42.385Z,101605.56
2022-09-02T00:44:15.149Z,101604.13
2022-09-02T00:46:45.283Z,101604.94
2022-09-02T00:49:19.149Z,101603.28
2022-09-02T00:51:55.908Z,101599.13
2022-09-02T00:54:28.730Z,101600.41
2022-09-02T00:56:59.292Z,101602.47
2022-09-02T00:59:48.658Z,101596.63
2022-09-02T01:02:18.995Z,101592.91
2022-09-02T01:04:49.750Z,101589.41
2022-09-02T01:07:22.424Z,101590.00
2022-09-02T01:09:53.366Z,101592.69
2022-09-02T01:12:23.225Z,101593.72
2022-09-02T01:14:53.431Z,101591.03
2022-09-02T01:17:24.412Z,101587.31
2022-09-02T01:20:00.609Z,101583.78
2022-09-02T01:22:36.178Z,101580.25
2022-09-02T01:25:13.861Z,101578.41
2022-09-02T01:27:44.212Z,101585.44
2022-09-02T01:30:18.838Z,101575.91
2022-09-02T01:32:48.844Z,101580.47
2022-09-02T01:35:19.081Z,101580.47
2022-09-02T01:37:55.500Z,101581.06
2022-09-02T01:40:27.744Z,101579.59
2022-09-02T01:43:01.399Z,101586.84
2022-09-02T01:45:31.528Z,101592.22
2022-09-02T01:48:01.544Z,101584.16
2022-09-02T01:50:31.643Z,101589.94
2022-09-02T01:53:04.979Z,101578.69
2022-09-02T01:55:37.435Z,101582.41
2022-09-02T01:58:11.304Z,101580.75
2022-09-02T02:00:42.031Z,101583.63
2022-09-02T02:03:12.087Z,101579.91
2022-09-02T02:05:42.113Z,101572.84
2022-09-02T02:08:14.787Z,101576.75
2022-09-02T02:10:47.326Z,101570.34
2022-09-02T02:13:17.732Z,101572.63
2022-09-02T02:15:48.413Z,101571.78
2022-09-02T02:18:18.426Z,101567.63
2022-09-02T02:20:48.853Z,101564.94
2022-09-02T02:23:21.965Z,101569.69
2022-09-02T02:25:52.000Z,101567.00
2022-09-02T02:28:21.940Z,101564.09
2022-09-02T02:30:51.924Z,101568.03
2022-09-02T02:33:22.484Z,101572.56
2022-09-02T02:36:01.008Z,101564.69
2022-09-02T02:38:33.779Z,101572.97
2022-09-02T02:41:08.677Z,101567.78
2022-09-02T02:43:39.611Z,101562.81
2022-09-02T02:46:12.119Z,101559.28
2022-09-02T02:48:42.604Z,101562.81
2022-09-02T02:51:13.275Z,101565.69
2022-09-02T02:53:45.905Z,101564.22
2022-09-02T02:56:16.085Z,101565.25
2022-09-02T02:58:46.065Z,101570.00
2022-09-02T03:01:16.526Z,101563.34
2022-09-02T03:03:47.061Z,101566.63
2022-09-02T03:06:17.112Z,101563.47
2022-09-02T03:08:55.210Z,101559.31
2022-09-02T03:11:28.624Z,101564.88
2022-09-02T03:13:59.814Z,101561.56
2022-09-02T03:16:29.831Z,101570.00
2022-09-02T03:18:59.785Z,101565.66
2022-09-02T03:21:30.074Z,101562.72
2022-09-02T03:24:13.881Z,101560.44
2022-09-02T03:26:44.926Z,101553.78
2022-09-02T03:29:15.687Z,101560.19
2022-09-02T03:31:47.176Z,101561.41
2022-09-02T03:34:17.265Z,101558.28
2022-09-02T03:36:47.759Z,101552.06
2022-09-02T03:39:21.202Z,101548.94
2022-09-02T03:41:53.013Z,101554.13
2022-09-02T03:44:23.741Z,101549.13
2022-09-02T03:46:53.998Z,101553.66
2022-09-02T03:49:23.885Z,101554.66
2022-09-02T03:51:53.842Z,101550.31
2022-09-02T03:54:26.351Z,101554.03
2022-09-02T03:56:56.380Z,101547.81
2022-09-02T03:59:27.910Z,101549.50
2022-09-02T04:01:58.295Z,101544.94
2022-09-02T04:04:29.184Z,101548.66
2022-09-02T04:06:59.645Z,101548.00
2022-09-02T04:09:33.332Z,101549.84
2022-09-02T04:12:03.672Z,101548.00
2022-09-02T04:14:35.192Z,101544.47
2022-09-02T04:17:05.991Z,101553.56
2022-09-02T04:19:37.677Z,101554.59
2022-09-02T04:22:26.804Z,101549.41
2022-09-02T04:24:59.449Z,101554.97
2022-09-02T04:27:30.846Z,101550.44
2022-09-02T04:30:00.976Z,101545.25
2022-09-02T04:32:37.134Z,101557.84
2022-09-02T04:35:11.236Z,101556.81
2022-09-02T04:37:42.131Z,101563.66
2022-09-02T04:40:14.963Z,101561.81
2022-09-02T04:42:46.674Z,101565.81
2022-09-02T04:45:16.814Z,101563.13
2022-09-02T04:47:47.067Z,101553.56
2022-09-02T04:50:18.512Z,101557.25
2022-09-02T04:53:01.089Z,101556.44
2022-09-02T04:55:36.495Z,101563.84
2022-09-02T04:58:06.421Z,101562.84
2022-09-02T05:00:36.331Z,101565.53
2022-09-02T05:03:07.122Z,101566.53
2022-09-02T05:05:39.257Z,101562.19
2022-09-02T05:08:13.256Z,101559.69
2022-09-02T05:10:50.633Z,101556.63
2022-09-02T05:13:20.842Z,101565.13
2022-09-02T05:15:51.043Z,101564.13
2022-09-02T05:18:21.529Z,101567.47
2022-09-02T05:20:51.564Z,101564.78
2022-09-02T05:23:21.986Z,101571.81
2022-09-02T05:25:54.693Z,101572.84
2022-09-02T05:28:25.211Z,101566.44
2022-09-02T05:30:55.182Z,101578.03
2022-09-02T05:33:25.657Z,101567.28
2022-09-02T05:35:56.330Z,101576.16
2022-09-02T05:38:27.326Z,101575.53
2022-09-02T05:41:08.339Z,101573.88
2022-09-02T05:43:39.765Z,101580.72
2022-09-02T05:46:12.086Z,101572.84
2022-09-02T05:48:54.734Z,101572.66
2022-09-02T05:51:24.827Z,101570.16
2022-09-02T05:53:57.936Z,101568.84
2022-09-02T05:56:31.313Z,101573.19
2022-09-02T05:59:01.776Z,101573.13
2022-09-02T06:01:32.753Z,101573.69
2022-09-02T06:04:03.792Z,101575.44
2022-09-02T06:06:34.628Z,101570.88
2022-09-02T06:09:05.809Z,101581.31
2022-09-02T06:11:40.107Z,101580.09
2022-09-02T06:14:13.459Z,101583.44
2022-09-02T06:16:45.952Z,101581.94
2022-09-02T06:19:25.341Z,101576.56
2022-09-02T06:21:57.573Z,101574.47
2022-09-02T06:24:29.803Z,101575.25
2022-09-02T06:27:04.224Z,101578.34
2022-09-02T06:29:35.056Z,101576.94
2022-09-02T06:32:05.575Z,101589.38
2022-09-02T06:34:35.595Z,101589.31
2022-09-02T06:37:08.812Z,101580.56
2022-09-02T06:39:44.014Z,101583.19
2022-09-02T06:42:22.178Z,101572.94
2022-09-02T06:45:11.944Z,101573.00
2022-09-02T06:47:43.348Z,101574.88
2022-09-02T06:50:13.907Z,101578.41
2022-09-02T06:52:44.570Z,101584.47
2022-09-02T06:55:18.199Z,101573.88
2022-09-02T06:57:50.707Z,101568.91
2022-09-02T07:00:23.451Z,101577.00
2022-09-02T07:03:13.608Z,101572.00
2022-09-02T07:05:41.783Z,101578.16
2022-09-02T07:08:12.031Z,101578.81
2022-09-02T07:10:44.240Z,101571.06
2022-09-02T07:13:16.667Z,101576.69
2022-09-02T07:15:46.724Z,101573.13
2022-09-02T07:18:16.901Z,101572.88
2022-09-02T07:20:48.950Z,101576.59
2022-09-02T07:23:19.329Z,101583.19
2022-09-02T07:25:49.481Z,101582.31
2022-09-02T07:28:22.246Z,101572.31
2022-09-02T07:30:58.970Z,101571.66
2022-09-02T07:33:30.468Z,101577.22
2022-09-02T07:36:01.931Z,101574.50
2022-09-02T07:38:32.945Z,101573.41
2022-09-02T07:41:04.875Z,101575.09
2022-09-02T07:43:42.398Z,101573.47
2022-09-02T07:46:13.413Z,101570.53
2022-09-02T07:48:45.139Z,101576.31
2022-09-02T07:51:15.426Z,101575.38
2022-09-02T07:53:45.771Z,101576.13
2022-09-02T07:56:17.874Z,101583.31
2022-09-02T07:58:50.796Z,101579.25
2022-09-02T08:01:23.486Z,101580.44
2022-09-02T08:03:56.026Z,101575.75
2022-09-02T08:06:33.917Z,101578.16
2022-09-02T08:09:05.454Z,101574.31
2022-09-02T08:11:39.359Z,101581.94
2022-09-02T08:14:15.374Z,101582.69
2022-09-02T08:16:47.462Z,101588.88
2022-09-02T08:19:18.497Z,101586.91
2022-09-02T08:21:48.437Z,101583.72
2022-09-02T08:24:18.319Z,101581.75
2022-09-02T08:26:48.200Z,101575.41
2022-09-02T08:29:20.579Z,101576.16
2022-09-02T08:31:53.552Z,101574.78
2022-09-02T08:34:24.232Z,101584.25
2022-09-02T08:36:56.685Z,101575.06
2022-09-02T08:39:27.578Z,101578.16
2022-09-02T08:42:08.048Z,101569.56
2022-09-02T08:44:41.877Z,101566.97
2022-09-02T08:47:18.252Z,101569.72
2022-09-02T08:49:52.543Z,101574.38
2022-09-02T08:52:28.540Z,101572.53
2022-09-02T08:54:59.031Z,101571.34
2022-09-02T08:57:29.892Z,101573.34
2022-09-02T09:00:05.031Z,101576.06
2022-09-02T09:02:47.593Z,101569.34
2022-09-02T09:05:27.647Z,101561.69
2022-09-02T09:08:14.731Z,101557.34
2022-09-02T09:10:57.181Z,101571.75
2022-09-02T09:14:05.436Z,101561.47
2022-09-02T09:16:43.831Z,101566.63
2022-09-02T09:19:16.772Z,101551.53
2022-09-02T09:21:47.677Z,101550.50
2022-09-02T09:24:25.485Z,101548.16
2022-09-02T09:26:56.641Z,101544.25
2022-09-02T09:29:27.023Z,101546.66
2022-09-02T09:32:02.877Z,101541.56
2022-09-02T09:35:00.143Z,101544.59
2022-09-02T09:37:37.046Z,101544.69
2022-09-02T09:40:30.555Z,101544.78
2022-09-02T09:45:54.454Z,101536.97
2022-09-02T09:48:30.806Z,101533.66
2022-09-02T09:51:18.877Z,101537.84
2022-09-02T09:53:49.286Z,101527.59
2022-09-02T09:56:40.102Z,101529.47
2022-09-02T09:59:31.859Z,101523.50
2022-09-02T10:02:01.932Z,101529.59
2022-09-02T10:04:44.023Z,101530.75
2022-09-02T10:07:14.449Z,101523.25
2022-09-02T10:09:45.161Z,101519.94
2022-09-02T10:12:17.211Z,101517.13
2022-09-02T10:14:49.548Z,101517.78
2022-09-02T10:17:34.496Z,101514.34
2022-09-02T10:20:15.339Z,101519.81
2022-09-02T10:23:07.318Z,101512.22
2022-09-02T10:25:47.998Z,101506.38
2022-09-02T10:28:32.487Z,101507.97
2022-09-02T10:31:11.220Z,101500.44
2022-09-02T10:33:55.714Z,101496.28
2022-09-02T10:36:36.388Z,101507.94
2022-09-02T10:39:15.961Z,101497.50
2022-09-02T10:41:48.976Z,101509.44
2022-09-02T10:44:33.954Z,101500.75
2022-09-02T10:47:05.605Z,101499.72
2022-09-02T10:50:05.552Z,101497.88
2022-09-02T10:52:51.078Z,101495.34
2022-09-02T10:55:31.292Z,101498.66
2022-09-02T10:58:08.887Z,101485.25
2022-09-02T11:00:44.883Z,101486.31
2022-09-02T11:03:20.877Z,101493.63
2022-09-02T11:05:54.096Z,101483.06
2022-09-02T11:08:36.170Z,101485.34
2022-09-02T11:11:11.334Z,101494.44
2022-09-02T11:13:51.920Z,101481.22
2022-09-02T11:16:26.333Z,101489.28
2022-09-02T11:19:03.676Z,101483.13
2022-09-02T11:21:45.960Z,101480.03
2022-09-02T11:24:26.068Z,101468.22
2022-09-02T11:27:01.176Z,101475.25
2022-09-02T11:29:41.523Z,101475.88
2022-09-02T11:32:18.281Z,101466.97
2022-09-02T11:34:51.326Z,101475.50
2022-09-02T11:37:32.978Z,101467.59
2022-09-02T11:40:33.215Z,101466.69
2022-09-02T11:43:17.606Z,101462.81
2022-09-02T11:46:09.611Z,101472.00
2022-09-02T11:48:57.186Z,101471.84
2022-09-02T11:52:02.196Z,101463.69
2022-09-02T11:54:37.628Z,101469.06
2022-09-02T11:57:16.366Z,101467.66
2022-09-02T12:00:06.488Z,101467.16
2022-09-02T12:02:46.049Z,101458.84
2022-09-02T12:05:46.146Z,101453.28
2022-09-02T12:08:37.070Z,101447.44
2022-09-02T12:11:08.981Z,101444.28
2022-09-02T12:13:45.759Z,101443.44
2022-09-02T12:16:39.945Z,101443.13
2022-09-02T12:19:29.765Z,101437.63
2022-09-02T12:22:41.971Z,101434.97
2022-09-02T12:25:48.453Z,101431.31
2022-09-02T12:28:29.530Z,101425.25
2022-09-02T12:31:21.778Z,101409.94
2022-09-02T12:33:53.740Z,101415.16
2022-09-02T12:36:48.041Z,101412.66
2022-09-02T12:39:54.465Z,101413.72
2022-09-02T12:42:30.433Z,101403.59
2022-09-02T12:45:08.962Z,101401.28
2022-09-02T12:47:53.408Z,101397.56
2022-09-02T12:50:29.891Z,101400.75
2022-09-02T12:53:37.897Z,101407.06
2022-09-02T12:56:18.959Z,101406.88
2022-09-02T12:58:50.972Z,101402.63
2022-09-02T13:01:27.221Z,101398.03
2022-09-02T13:04:14.716Z,101393.09
2022-09-02T13:07:19.693Z,101393.47
2022-09-02T13:10:26.477Z,101383.91
2022-09-02T13:13:18.110Z,101388.34
2022-09-02T13:16:15.591Z,101392.84
2022-09-02T13:19:20.262Z,101386.72
2022-09-02T13:22:16.025Z,101394.72
2022-09-02T13:25:08.356Z,101386.00
2022-09-02T13:28:02.578Z,101388.13
2022-09-02T13:30:59.105Z,101384.00
2022-09-02T13:33:29.954Z,101384.13
2022-09-02T13:36:01.395Z,101389.91
2022-09-02T13:38:34.250Z,101387.28
2022-09-02T13:41:04.297Z,101374.91
2022-09-02T13:43:34.441Z,101376.91
2022-09-02T13:46:05.129Z,101375.56
2022-09-02T13:48:35.899Z,101366.69
2022-09-02T13:51:17.361Z,101363.88
2022-09-02T13:54:21.681Z,101366.59
2022-09-02T13:56:41.667Z,101362.19
2022-09-02T13:59:11.526Z,101362.28
2022-09-02T14:01:42.092Z,101356.16
2022-09-02T14:04:15.717Z,101354.66
2022-09-02T14:06:50.307Z,101355.13
2022-09-02T14:09:28.293Z,101350.66
2022-09-02T14:11:59.830Z,101343.56
2022-09-02T14:14:30.065Z,101343.81
2022-09-02T14:17:21.218Z,101334.25
2022-09-02T14:19:51.301Z,101337.31
2022-09-02T14:22:29.587Z,101338.03
2022-09-02T14:25:02.185Z,101335.75
2022-09-02T14:27:32.188Z,101334.13
2022-09-02T14:30:04.236Z,101329.16
2022-09-02T14:32:34.214Z,101325.88
2022-09-02T14:35:23.118Z,101320.91
2022-09-02T14:37:56.020Z,101324.94
2022-09-02T14:40:43.066Z,101321.63
2022-09-02T14:43:16.160Z,101319.97
2022-09-02T14:45:50.376Z,101320.34
2022-09-02T14:48:24.999Z,101323.41
2022-09-02T14:51:02.738Z,101314.78
2022-09-02T14:53:33.827Z,101311.03
2022-09-02T14:56:07.876Z,101311.84
2022-09-02T14:58:37.758Z,101312.19
2022-09-02T15:01:08.574Z,101316.78
2022-09-02T15:03:41.051Z,101318.09
2022-09-02T15:06:14.964Z,101318.09
2022-09-02T15:08:45.084Z,101311.03
2022-09-02T15:11:20.446Z,101311.50
2022-09-02T15:13:50.322Z,101313.38
2022-09-02T15:16:20.289Z,101307.13
2022-09-02T15:18:50.304Z,101314.69
2022-09-02T15:21:21.215Z,101306.66
2022-09-02T15:23:51.462Z,101312.56
2022-09-02T15:26:23.958Z,101309.22
2022-09-02T15:28:53.813Z,101303.81
2022-09-02T15:31:23.738Z,101301.94
2022-09-02T15:33:55.066Z,101297.34
2022-09-02T15:36:25.516Z,101303.13
2022-09-02T15:38:55.514Z,101299.88
2022-09-02T15:41:31.504Z,101293.06
2022-09-02T15:44:02.926Z,101292.81
2022-09-02T15:46:34.639Z,101294.69
2022-09-02T15:49:06.548Z,101292.00
2022-09-02T15:51:38.596Z,101298.22
2022-09-02T15:54:11.357Z,101299.28
2022-09-02T15:56:50.175Z,101290.09
2022-09-02T15:59:22.248Z,101286.34
2022-09-02T16:01:55.304Z,101297.16
2022-09-02T16:04:27.273Z,101288.47
2022-09-02T16:06:57.540Z,101281.03
2022-09-02T16:09:27.599Z,101300.09
2022-09-02T16:12:00.076Z,101288.31
2022-09-02T16:14:29.950Z,101289.38
2022-09-02T16:17:00.109Z,101295.38
2022-09-02T16:19:31.182Z,101288.91
2022-09-02T16:22:01.360Z,101283.72
2022-09-02T16:24:31.705Z,101285.38
2022-09-02T16:27:04.339Z,101288.78
2022-09-02T16:29:37.236Z,101287.84
2022-09-02T16:32:24.376Z,101283.94
2022-09-02T16:34:58.447Z,101283.47
2022-09-02T16:37:28.324Z,101289.72
2022-09-02T16:39:58.267Z,101284.78
2022-09-02T16:42:33.779Z,101288.78
2022-09-02T16:45:06.693Z,101277.31
2022-09-02T16:47:36.606Z,101278.63
2022-09-02T16:50:07.222Z,101284.13
2022-09-02T16:52:38.159Z,101271.28
2022-09-02T16:55:09.158Z,101278.81
2022-09-02T16:57:41.584Z,101273.88
2022-09-02T17:00:13.127Z,101269.75
2022-09-02T17:02:43.053Z,101271.03
2022-09-02T17:05:14.493Z,101270.66
2022-09-02T17:07:44.513Z,101274.63
2022-09-02T17:10:14.586Z,101271.31
2022-09-02T17:12:47.086Z,101274.50
2022-09-02T17:15:17.413Z,101280.56
2022-09-02T17:17:47.289Z,101270.19
2022-09-02T17:20:17.200Z,101272.09
2022-09-02T17:22:47.247Z,101272.09
2022-09-02T17:25:18.170Z,101274.78
2022-09-02T17:27:50.935Z,101277.94
2022-09-02T17:30:23.190Z,101279.59
2022-09-02T17:32:56.608Z,101278.41
2022-09-02T17:35:26.800Z,101279.94
2022-09-02T17:37:57.884Z,101282.25
2022-09-02T17:40:40.194Z,101280.63
2022-09-02T17:43:13.648Z,101283.19
2022-09-02T17:45:43.608Z,101284.47
2022-09-02T17:48:34.794Z,101280.34
2022-09-02T17:51:03.534Z,101282.03
2022-09-02T17:53:33.928Z,101282.03
2022-09-02T17:56:12.447Z,101279.34
2022-09-02T17:58:55.453Z,101274.38
2022-09-02T18:01:30.386Z,101287.91
2022-09-02T18:04:08.861Z,101282.94
2022-09-02T18:06:45.379Z,101282.94
2022-09-02T18:09:15.278Z,101285.06
2022-09-02T18:11:45.575Z,101293.84
2022-09-02T18:14:31.186Z,101292.06
2022-09-02T18:17:09.409Z,101288.53
2022-09-02T18:19:52.494Z,101286.88
2022-09-02T18:22:49.141Z,101292.50
2022-09-02T18:25:32.649Z,101296.47
2022-09-02T18:28:13.684Z,101302.31
2022-09-02T18:30:51.055Z,101300.06
2022-09-02T18:33:42.495Z,101299.47
2022-09-02T18:36:24.086Z,101299.91
2022-09-02T18:39:08.570Z,101301.97
2022-09-02T18:41:47.528Z,101300.31
2022-09-02T18:44:27.123Z,101308.88
2022-09-02T18:47:05.294Z,101310.97
2022-09-02T18:49:39.321Z,101309.31
2022-09-02T18:52:12.437Z,101307.06
2022-09-02T18:54:48.159Z,101306.69
2022-09-02T18:57:18.151Z,101314.56
2022-09-02T18:59:54.741Z,101316.91
2022-09-02T19:02:38.389Z,101318.78
2022-09-02T19:05:11.955Z,101315.91
2022-09-02T19:07:54.416Z,101315.91
2022-09-02T19:10:25.425Z,101314.72
2022-09-02T19:12:56.237Z,101319.72
2022-09-02T19:15:26.979Z,101325.34
2022-09-02T19:18:00.093Z,101324.16
2022-09-02T19:20:30.276Z,101329.13
2022-09-02T19:23:02.193Z,101324.78
2022-09-02T19:25:33.721Z,101323.56
2022-09-02T19:28:06.271Z,101325.66
2022-09-02T19:30:37.645Z,101329.41
2022-09-02T19:33:16.494Z,101337.13
2022-09-02T19:35:49.713Z,101330.28
2022-09-02T19:38:19.860Z,101329.47
2022-09-02T19:40:50.293Z,101330.97
2022-09-02T19:43:20.663Z,101333.06
2022-09-02T19:45:51.508Z,101330.75
2022-09-02T19:48:24.141Z,101333.91
2022-09-02T19:50:54.200Z,101344.69
2022-09-02T19:53:30.383Z,101341.63
2022-09-02T19:56:00.538Z,101339.75
2022-09-02T19:58:30.913Z,101336.44
2022-09-02T20:01:01.231Z,101338.72
2022-09-02T20:03:34.339Z,101332.31
2022-09-02T20:06:07.532Z,101338.75
2022-09-02T20:08:37.393Z,101334.84
2022-09-02T20:11:09.008Z,101336.75
2022-09-02T20:13:41.635Z,101340.50
2022-09-02T20:16:20.515Z,101337.41
2022-09-02T20:18:56.728Z,101331.41
2022-09-02T20:21:28.905Z,101338.06
2022-09-02T20:24:03.428Z,101336.84
2022-09-02T20:26:43.638Z,101333.09
2022-09-02T20:29:28.498Z,101336.84
2022-09-02T20:32:07.395Z,101344.94
2022-09-02T20:34:57.075Z,101345.38
2022-09-02T20:37:38.233Z,101340.38
2022-09-02T20:40:34.869Z,101338.72
2022-09-02T20:43:25.157Z,101342.91
2022-09-02T20:46:00.495Z,101348.72
2022-09-02T20:48:47.871Z,101350.81
2022-09-02T20:51:26.711Z,101344.78
2022-09-02T20:54:16.649Z,101351.44
2022-09-02T20:56:54.364Z,101359.75
2022-09-02T20:59:34.201Z,101351.06
2022-09-02T21:02:07.112Z,101358.53
2022-09-02T21:04:42.181Z,101356.25
2022-09-02T21:07:24.276Z,101359.13
2022-09-02T21:09:59.172Z,101358.53
2022-09-02T21:12:37.286Z,101359.78
2022-09-02T21:15:13.347Z,101366.44
2022-09-02T21:17:48.895Z,101363.94
2022-09-02T21:20:24.388Z,101371.44
2022-09-02T21:23:01.135Z,101369.13
2022-09-02T21:25:36.779Z,101360.41
2022-09-02T21:28:11.585Z,101356.50
2022-09-02T21:30:43.642Z,101358.78
2022-09-02T21:33:16.574Z,101367.69
2022-09-02T21:35:49.316Z,101357.34
2022-09-02T21:38:26.297Z,101363.78
2022-09-02T21:41:10.322Z,101359.84
2022-09-02T21:43:55.733Z,101352.81
2022-09-02T21:46:32.755Z,101355.09
2022-09-02T21:49:10.503Z,101362.34
2022-09-02T21:51:48.153Z,101358.44
2022-09-02T21:54:37.571Z,101357.81
2022-09-02T21:57:21.803Z,101358.03
2022-09-02T22:00:02.461Z,101354.91
2022-09-02T22:02:50.169Z,101355.31
2022-09-02T22:05:31.448Z,101348.69
2022-09-02T22:08:11.145Z,101354.28
2022-09-02T22:10:52.763Z,101356.78
2022-09-02T22:13:22.716Z,101354.91
2022-09-02T22:16:02.010Z,101360.09
2022-09-02T22:18:40.607Z,101360.53
2022-09-02T22:21:19.892Z,101361.56
2022-09-02T22:23:50.824Z,101360.13
2022-09-02T22:26:34.627Z,101367.13
2022-09-02T22:29:07.808Z,101370.88
2022-09-02T22:31:42.755Z,101364.66
2022-09-02T22:34:16.174Z,101368.38
2022-09-02T22:37:06.909Z,101363.41
2022-09-02T22:39:44.138Z,101361.53
2022-09-02T22:42:23.390Z,101364.44
2022-09-02T22:45:11.267Z,101371.69
2022-09-02T22:48:01.108Z,101367.75
2022-09-02T22:50:49.202Z,101368.97
2022-09-02T22:53:19.300Z,101370.22
2022-09-02T22:56:02.359Z,101368.38
2022-09-02T22:58:55.379Z,101367.31
2022-09-02T23:01:35.068Z,101362.34
2022-09-02T23:04:21.461Z,101364.63
2022-09-02T23:06:51.369Z,101362.78
2022-09-02T23:09:22.808Z,101366.50
2022-09-02T23:12:02.444Z,101360.50
2022-09-02T23:14:45.148Z,101354.47
2022-09-02T23:17:27.170Z,101357.59
2022-09-02T23:20:09.803Z,101343.50
2022-09-02T23:23:03.512Z,101347.44
2022-09-02T23:25:55.895Z,101346.63
2022-09-02T23:28:36.946Z,101344.13
2022-09-02T23:31:19.049Z,101343.31
2022-09-02T23:33:57.378Z,101344.34
2022-09-02T23:36:38.307Z,101342.03
2022-09-02T23:39:25.502Z,101346.16
2022-09-02T23:42:00.781Z,101336.84
2022-09-02T23:44:31.733Z,101330.63
2022-09-02T23:47:17.500Z,101331.25
2022-09-02T23:49:57.845Z,101338.50
2022-09-02T23:52:31.857Z,101328.97
2022-09-02T23:55:07.948Z,101330.00
2022-09-02T23:58:05.385Z,101320.47
